Time;durP1;ratioP1;P1;durP2;ratioP2;P2;SDS_P1;SDS_P2;PMS_P1;PMS_P2;Temp;Humidity;BMP_temperature;BMP_pressure;BME280_temperature;BME280_humidity;BME280_pressure;Samples;Min_cycle;Max_cycle;Signal;HPM_P1;HPM_P2
2021/08/10 00:03:44;;;;;;;6.57;3.77;;;;;;;19.40;64.60;99386.07;263654;1091;115164;-63
2021/08/10 00:08:48;;;;;;;11.13;4.18;;;;;;;19.42;64.55;99379.51;262007;1092;116404;-62
2021/08/10 00:13:52;;;;;;;5.90;3.83;;;;;;;19.43;64.87;99380.36;262217;1093;115472;-64
2021/08/10 00:18:55;;;;;;;8.75;4.23;;;;;;;19.45;64.94;99367.58;262611;1092;115142;-59
2021/08/10 00:24:00;;;;;;;9.23;3.60;;;;;;;19.43;65.23;99381.23;263612;1092;115198;-61
2021/08/10 00:29:05;;;;;;;7.87;3.50;;;;;;;19.44;65.15;99364.03;263256;1092;115142;-63
2021/08/10 00:34:08;;;;;;;7.63;3.73;;;;;;;19.47;65.17;99338.61;263600;1092;115217;-63
2021/08/10 00:39:12;;;;;;;10.48;4.23;;;;;;;19.49;64.97;99331.20;263494;1093;115260;-60
2021/08/10 00:44:16;;;;;;;6.83;3.75;;;;;;;19.47;65.06;99317.86;263416;1093;114826;-62
2021/08/10 00:49:23;;;;;;;10.17;4.20;;;;;;;19.45;65.02;99327.09;263535;1092;114767;-69
2021/08/10 00:54:28;;;;;;;5.40;3.47;;;;;;;19.39;64.84;99336.61;263032;1092;114962;-66
2021/08/10 00:59:33;;;;;;;;;;;;;;;19.37;64.96;99346.71;262655;1091;114681;-61
2021/08/10 01:04:38;;;;;;;6.43;3.43;;;;;;;19.34;65.02;99344.30;263296;1091;102874;-64
2021/08/10 01:10:01;;;;;;;6.37;3.57;;;;;;;19.33;65.18;99343.45;263301;1093;115181;-64
2021/08/10 01:15:14;;;;;;;7.10;4.07;;;;;;;19.32;65.34;99344.42;263579;1092;115081;-61
2021/08/10 01:20:39;;;;;;;7.77;4.17;;;;;;;19.28;65.29;99337.61;263414;1093;115428;-61
2021/08/10 01:26:04;;;;;;;8.47;3.60;;;;;;;19.26;65.53;99346.84;263550;1093;116309;-61
2021/08/10 01:31:27;;;;;;;5.53;3.57;;;;;;;19.24;65.20;99344.30;263680;1092;115474;-62
2021/08/10 01:36:39;;;;;;;8.70;3.90;;;;;;;19.27;65.32;99346.72;263476;1092;115334;-65
2021/08/10 01:41:44;;;;;;;9.77;3.97;;;;;;;19.25;65.58;99347.84;263530;1093;115001;-63
2021/08/10 01:46:48;;;;;;;8.00;3.70;;;;;;;19.20;65.52;99344.73;263337;1092;115191;-64
2021/08/10 01:51:53;;;;;;;;;;;;;;;19.15;65.41;99343.30;263050;1093;115282;-62
2021/08/10 01:57:00;;;;;;;8.50;4.00;;;;;;;19.09;65.86;99343.89;263207;1092;102145;-60
2021/08/10 02:02:08;;;;;;;7.43;3.63;;;;;;;19.06;65.61;99341.47;262896;1092;115079;-63
2021/08/10 02:07:14;;;;;;;7.47;3.60;;;;;;;19.05;65.77;99338.89;262648;1092;115189;-60
2021/08/10 02:12:18;;;;;;;7.10;4.10;;;;;;;19.05;66.10;99345.14;263279;1093;116359;-64
2021/08/10 02:17:22;;;;;;;7.53;4.30;;;;;;;19.09;66.03;99334.95;263133;1092;115323;-62
2021/08/10 02:22:30;;;;;;;8.60;4.27;;;;;;;19.10;66.17;99325.84;263514;1091;116375;-62
2021/08/10 02:27:55;;;;;;;9.30;3.60;;;;;;;19.12;65.84;99316.63;263348;1092;115493;-61
2021/08/10 02:33:06;;;;;;;7.63;3.80;;;;;;;19.17;65.88;99324.28;263621;1093;115065;-60
2021/08/10 02:38:17;;;;;;;15.90;4.20;;;;;;;19.17;65.83;99336.92;263306;1092;115165;-61
2021/08/10 02:43:27;;;;;;;8.60;4.60;;;;;;;19.20;66.33;99328.55;263487;1093;115518;-61
2021/08/10 02:48:32;;;;;;;7.60;4.10;;;;;;;19.21;65.94;99324.84;262508;1092;114987;-62
2021/08/10 02:53:38;;;;;;;5.70;3.90;;;;;;;19.17;66.15;99326.98;262716;1092;115308;-61
2021/08/10 02:58:48;;;;;;;8.28;4.00;;;;;;;19.11;65.90;99336.48;263328;1093;115351;-59
2021/08/10 03:03:55;;;;;;;10.17;3.90;;;;;;;19.10;66.05;99348.28;262511;1092;115605;-62
2021/08/10 03:09:00;;;;;;;7.87;4.60;;;;;;;19.18;66.52;99338.63;263660;1093;114848;-62
2021/08/10 03:14:05;;;;;;;;;;;;;;;19.22;66.53;99337.33;263800;1092;115429;-62
2021/08/10 03:19:12;;;;;;;12.60;4.90;;;;;;;19.21;66.75;99335.64;263685;1092;103731;-63
2021/08/10 03:24:16;;;;;;;6.60;4.27;;;;;;;19.22;66.42;99330.09;263601;1093;115358;-63
2021/08/10 03:29:23;;;;;;;16.88;12.13;;;;;;;19.43;67.49;99329.95;262840;1092;115874;-62
2021/08/10 03:34:27;;;;;;;18.07;13.10;;;;;;;19.99;67.61;99323.70;263453;1092;116112;-63
2021/08/10 03:39:32;;;;;;;29.98;20.58;;;;;;;20.45;67.36;99331.89;263270;1092;114961;-67
2021/08/10 03:44:42;;;;;;;16.10;10.40;;;;;;;20.77;66.76;99326.86;263422;1092;114941;-64
2021/08/10 03:49:48;;;;;;;11.97;9.03;;;;;;;20.98;66.01;99339.23;263724;1092;115192;-63
2021/08/10 03:54:52;;;;;;;16.43;9.70;;;;;;;21.14;65.69;99325.86;262488;1093;115207;-60
2021/08/10 03:59:57;;;;;;;11.38;7.58;;;;;;;21.25;65.47;99322.06;263474;1093;115452;-61
2021/08/10 04:05:01;;;;;;;10.90;7.53;;;;;;;21.31;64.97;99315.18;263796;1092;116173;-60
2021/08/10 04:10:07;;;;;;;10.28;7.03;;;;;;;21.36;64.93;99320.99;263292;1093;115218;-59
2021/08/10 04:15:12;;;;;;;15.73;5.77;;;;;;;21.35;64.61;99316.59;263514;1092;115140;-60
2021/08/10 04:20:18;;;;;;;29.63;6.87;;;;;;;21.35;64.15;99322.86;263506;1092;115314;-65
2021/08/10 04:25:23;;;;;;;15.90;5.50;;;;;;;21.38;63.93;99314.42;262922;1092;116335;-59
2021/08/10 04:30:28;;;;;;;11.83;5.83;;;;;;;21.25;63.35;99322.91;263362;1093;115295;-60
2021/08/10 04:35:33;;;;;;;10.23;4.40;;;;;;;20.94;63.18;99330.58;263491;1093;115722;-63
2021/08/10 04:40:37;;;;;;;8.30;4.20;;;;;;;20.69;63.11;99321.38;263542;1092;115049;-59
2021/08/10 04:45:47;;;;;;;9.57;4.07;;;;;;;20.44;63.00;99328.31;263226;1093;116805;-58
2021/08/10 04:50:50;;;;;;;9.20;4.30;;;;;;;20.24;63.28;99318.61;263431;1092;115095;-59
2021/08/10 04:55:55;;;;;;;5.97;4.20;;;;;;;20.11;63.57;99321.67;262751;1092;115119;-63
2021/08/10 05:01:03;;;;;;;8.93;4.33;;;;;;;20.04;64.07;99320.54;263362;1092;115574;-64
2021/08/10 05:06:09;;;;;;;9.10;5.10;;;;;;;19.96;63.94;99307.78;263487;1093;115311;-60
2021/08/10 05:11:14;;;;;;;9.80;5.00;;;;;;;19.96;64.28;99307.78;263541;1093;115405;-61
2021/08/10 05:16:18;;;;;;;11.25;5.43;;;;;;;19.91;64.08;99307.39;263532;1092;114982;-61
2021/08/10 05:21:22;;;;;;;9.63;5.08;;;;;;;19.88;64.39;99304.98;263440;1093;115368;-59
2021/08/10 05:26:29;;;;;;;13.00;5.30;;;;;;;19.87;64.44;99322.20;263264;1092;115133;-59
2021/08/10 05:31:34;;;;;;;14.50;5.95;;;;;;;19.92;64.87;99333.39;263182;1093;115187;-60
2021/08/10 05:36:37;;;;;;;20.13;6.88;;;;;;;20.00;65.21;99338.05;262946;1093;115496;-61
2021/08/10 05:41:41;;;;;;;22.13;10.65;;;;;;;20.14;65.23;99342.13;263428;1092;115275;-60
2021/08/10 05:46:45;;;;;;;27.03;11.13;;;;;;;20.18;64.85;99336.29;263252;1093;115746;-62
2021/08/10 05:51:51;;;;;;;16.10;8.43;;;;;;;20.21;65.44;99329.71;263324;1092;115928;-59
2021/08/10 05:56:55;;;;;;;17.53;9.20;;;;;;;20.21;65.22;99330.59;263565;1092;115213;-61
2021/08/10 06:02:00;;;;;;;20.03;11.88;;;;;;;20.32;65.85;99329.53;263344;1093;115340;-64
2021/08/10 06:07:06;;;;;;;20.37;11.60;;;;;;;20.46;65.69;99322.77;263094;1092;115486;-61
2021/08/10 06:12:13;;;;;;;14.80;8.60;;;;;;;20.60;65.77;99338.51;262975;1092;115719;-62
2021/08/10 06:17:18;;;;;;;15.58;9.50;;;;;;;20.67;65.60;99338.75;262732;1092;115201;-62
2021/08/10 06:22:22;;;;;;;10.90;5.40;;;;;;;20.73;65.62;99341.70;263439;1093;115976;-61
2021/08/10 06:27:26;;;;;;;16.20;7.50;;;;;;;20.90;65.51;99344.58;263009;1092;115644;-61
2021/08/10 06:32:31;;;;;;;90.20;61.50;;;;;;;21.08;65.46;99345.42;263523;1092;115198;-61
2021/08/10 06:37:34;;;;;;;18.68;12.55;;;;;;;21.22;65.20;99341.31;262949;1093;115549;-62
2021/08/10 06:42:38;;;;;;;12.40;7.70;;;;;;;21.31;64.79;99337.69;263272;1093;115406;-62
2021/08/10 06:47:43;;;;;;;12.13;7.33;;;;;;;21.37;64.43;99347.08;263588;1092;114861;-60
2021/08/10 06:52:47;;;;;;;9.03;5.48;;;;;;;21.39;64.34;99350.47;263679;1092;115750;-61
2021/08/10 06:57:53;;;;;;;10.57;5.80;;;;;;;21.44;64.66;99345.44;263341;1093;115272;-60
2021/08/10 07:02:57;;;;;;;12.25;7.98;;;;;;;21.56;64.58;99337.91;263454;1092;115507;-62
2021/08/10 07:08:01;;;;;;;9.90;5.73;;;;;;;21.63;64.30;99347.09;263226;1092;115387;-61
2021/08/10 07:13:08;;;;;;;10.47;5.93;;;;;;;21.66;63.79;99353.05;263349;1092;115313;-63
2021/08/10 07:18:11;;;;;;;8.90;6.55;;;;;;;21.74;64.06;99352.27;263508;1092;115452;-62
2021/08/10 07:23:16;;;;;;;;;;;;;;;21.77;64.03;99346.51;263410;1093;114930;-62
2021/08/10 07:28:31;;;;;;;11.33;5.63;;;;;;;21.81;64.14;99352.48;263695;1092;101217;-62
2021/08/10 07:33:37;;;;;;;7.83;6.00;;;;;;;21.87;64.15;99343.70;263596;1092;115020;-60
2021/08/10 07:38:46;;;;;;;175.43;132.33;;;;;;;21.96;63.79;99349.02;263334;1093;115221;-61
2021/08/10 07:43:50;;;;;;;10.37;6.37;;;;;;;22.13;64.08;99346.39;263151;1092;116637;-64
2021/08/10 07:48:55;;;;;;;10.37;5.50;;;;;;;22.16;63.15;99341.53;263397;1093;115199;-61
2021/08/10 07:53:59;;;;;;;7.08;4.55;;;;;;;22.21;63.44;99327.48;263523;1093;115456;-61
2021/08/10 07:59:04;;;;;;;8.93;4.67;;;;;;;22.27;63.39;99329.55;262524;1092;114743;-64
2021/08/10 08:04:07;;;;;;;9.75;5.18;;;;;;;22.34;63.48;99329.74;263566;1093;115052;-67
2021/08/10 08:09:11;;;;;;;6.88;4.73;;;;;;;22.39;63.46;99330.12;263733;1092;114693;-63
2021/08/10 08:14:19;;;;;;;6.73;3.80;;;;;;;22.45;63.54;99324.02;263344;1093;115225;-66
2021/08/10 08:19:23;;;;;;;12.83;3.70;;;;;;;22.54;62.88;99317.61;263278;1093;114953;-65
2021/08/10 08:24:29;;;;;;;8.80;4.50;;;;;;;22.64;63.15;99307.46;263593;1093;115476;-61
2021/08/10 08:29:33;;;;;;;5.80;3.68;;;;;;;22.76;62.90;99305.30;263236;1092;115324;-63
2021/08/10 08:34:37;;;;;;;8.18;4.13;;;;;;;22.86;62.73;99311.42;263371;1092;115052;-67
2021/08/10 08:39:41;;;;;;;8.15;4.25;;;;;;;22.96;63.02;99297.73;263457;1092;115355;-63
2021/08/10 08:44:44;;;;;;;6.83;4.13;;;;;;;23.02;62.56;99288.89;263699;1092;115257;-62
2021/08/10 08:49:55;;;;;;;6.33;3.30;;;;;;;23.08;62.41;99284.66;263299;1092;114880;-67
2021/08/10 08:55:00;;;;;;;4.77;3.23;;;;;;;23.15;62.27;99280.25;263347;1092;115731;-63
2021/08/10 09:00:05;;;;;;;;;;;;;;;23.26;62.25;99281.77;263785;1093;114859;-64
2021/08/10 09:05:14;;;;;;;6.57;3.10;;;;;;;23.33;61.56;99275.47;263630;1092;101458;-63
2021/08/10 09:10:19;;;;;;;6.93;3.37;;;;;;;23.44;61.67;99274.30;263641;1092;115138;-63
2021/08/10 09:15:29;;;;;;;;;;;;;;;23.53;61.84;99272.40;263598;1092;115778;-65
2021/08/10 09:20:34;;;;;;;6.07;4.00;;;;;;;23.57;61.89;99261.03;263578;1092;101395;-66
2021/08/10 09:25:38;;;;;;;;;;;;;;;23.64;61.18;99260.31;263603;1091;115106;-66
2021/08/10 09:30:43;;;;;;;3.83;3.23;;;;;;;23.72;61.00;99257.63;263525;1093;101755;-65
2021/08/10 09:35:47;;;;;;;6.40;3.50;;;;;;;23.81;61.37;99257.44;263456;1093;114646;-62
2021/08/10 09:40:54;;;;;;;8.80;4.07;;;;;;;23.91;61.46;99253.64;263509;1093;114921;-63
2021/08/10 09:46:08;;;;;;;11.77;4.53;;;;;;;24.03;61.36;99250.38;263365;1092;115279;-65
2021/08/10 09:51:15;;;;;;;6.07;3.30;;;;;;;24.20;61.31;99233.98;263493;1092;115051;-66
2021/08/10 09:56:19;;;;;;;4.63;2.90;;;;;;;24.37;61.05;99237.47;263526;1093;114978;-65
2021/08/10 10:01:37;;;;;;;3.30;2.40;;;;;;;24.49;60.50;99236.05;263489;1093;115397;-63
2021/08/10 10:06:43;;;;;;;557.87;431.17;;;;;;;24.54;60.10;99234.48;263560;1093;115134;-63
2021/08/10 10:11:49;;;;;;;16.27;11.43;;;;;;;24.63;59.53;99231.73;263403;1092;115714;-64
2021/08/10 10:16:58;;;;;;;8.17;4.03;;;;;;;24.74;59.54;99240.31;263562;1092;115401;-61
2021/08/10 10:22:04;;;;;;;7.47;3.67;;;;;;;24.87;59.32;99234.27;261692;1092;115046;-61
2021/08/10 10:27:10;;;;;;;8.17;3.30;;;;;;;24.96;58.97;99229.58;263343;1093;115137;-65
2021/08/10 10:32:14;;;;;;;3.83;2.83;;;;;;;25.06;58.44;99230.18;263502;1092;115345;-64
2021/08/10 10:37:24;;;;;;;39.20;29.98;;;;;;;25.17;59.00;99228.92;263177;1092;115312;-63
2021/08/10 10:42:29;;;;;;;7.50;4.60;;;;;;;25.28;58.41;99223.05;262886;1091;115420;-62
2021/08/10 10:47:34;;;;;;;7.50;3.27;;;;;;;25.40;57.85;99218.81;263213;1092;115210;-62
2021/08/10 10:52:40;;;;;;;4.70;3.07;;;;;;;25.53;57.52;99215.45;263081;1093;114658;-65
2021/08/10 10:57:43;;;;;;;5.73;2.53;;;;;;;25.68;57.56;99205.41;262753;1092;114673;-64
2021/08/10 11:03:25;;;;;;;6.05;3.08;;;;;;;25.81;57.48;99198.47;262753;1092;115265;-65
2021/08/10 11:08:37;;;;;;;23.43;17.53;;;;;;;25.89;57.27;99191.05;262947;1092;115327;-62
2021/08/10 11:13:41;;;;;;;4.57;3.40;;;;;;;26.03;56.90;99181.14;263212;1092;115245;-65
2021/08/10 11:18:44;;;;;;;6.85;3.00;;;;;;;26.20;57.23;99179.03;263446;1093;114624;-63
2021/08/10 11:23:48;;;;;;;187.98;140.85;;;;;;;26.37;56.98;99177.75;262382;1092;114959;-60
2021/08/10 11:28:52;;;;;;;22.53;15.25;;;;;;;26.57;56.99;99166.23;263282;1092;115647;-62
2021/08/10 11:33:55;;;;;;;10.80;6.10;;;;;;;26.62;56.17;99163.75;263188;1092;116277;-61
2021/08/10 11:39:02;;;;;;;6.85;3.95;;;;;;;26.69;56.49;99158.35;263525;1093;115375;-61
2021/08/10 11:44:18;;;;;;;5.60;2.90;;;;;;;26.81;55.46;99160.36;263353;1092;115091;-63
2021/08/10 11:49:24;;;;;;;6.63;2.80;;;;;;;26.96;55.40;99146.61;263277;1092;115059;-60
2021/08/10 11:54:28;;;;;;;5.50;2.90;;;;;;;27.04;55.29;99148.38;263889;1093;116242;-62
2021/08/10 11:59:33;;;;;;;4.77;2.63;;;;;;;27.04;54.36;99148.38;263341;1092;115291;-62
2021/08/10 12:04:38;;;;;;;4.93;2.70;;;;;;;26.86;53.87;99143.38;263257;1092;114718;-61
2021/08/10 12:09:45;;;;;;;6.00;2.77;;;;;;;26.86;54.12;99138.75;263367;1093;114938;-62
2021/08/10 12:14:49;;;;;;;4.10;3.10;;;;;;;26.74;54.14;99139.51;263610;1092;114674;-62
2021/08/10 12:19:52;;;;;;;3.48;2.98;;;;;;;26.68;53.55;99134.83;262646;1093;115325;-61
2021/08/10 12:25:00;;;;;;;9.65;3.05;;;;;;;26.71;53.49;99124.36;263315;1092;115100;-62
2021/08/10 12:30:13;;;;;;;3.15;2.50;;;;;;;26.64;53.44;99116.11;263529;1092;115163;-61
2021/08/10 12:35:21;;;;;;;3.87;3.00;;;;;;;26.55;53.43;99114.55;263874;1092;115351;-61
2021/08/10 12:40:25;;;;;;;17.30;4.20;;;;;;;26.64;53.61;99097.00;264022;1093;115064;-63
2021/08/10 12:45:33;;;;;;;5.38;2.70;;;;;;;26.84;54.09;99082.66;263829;1092;115589;-60
2021/08/10 12:50:37;;;;;;;4.50;2.40;;;;;;;27.15;53.53;99075.97;263555;1092;114806;-61
2021/08/10 12:55:50;;;;;;;4.75;3.28;;;;;;;27.47;53.46;99058.03;263296;1092;115734;-62
2021/08/10 13:01:03;;;;;;;8.00;4.38;;;;;;;27.83;53.12;99060.52;262951;1092;114938;-62
2021/08/10 13:06:24;;;;;;;3.63;2.20;;;;;;;28.29;51.83;99054.28;263848;1092;115760;-64
2021/08/10 13:11:27;;;;;;;5.17;3.57;;;;;;;28.71;50.54;99049.48;263901;1091;115193;-62
2021/08/10 13:16:35;;;;;;;48.23;41.18;;;;;;;28.97;49.89;99043.98;263536;1092;114845;-62
2021/08/10 13:21:49;;;;;;;5.37;4.00;;;;;;;29.18;49.09;99020.97;263593;1093;115441;-60
2021/08/10 13:26:55;;;;;;;;;;;;;;;29.45;48.38;99024.45;263104;1092;115179;-60
2021/08/10 13:31:59;;;;;;;3.27;2.53;;;;;;;29.60;47.04;99015.96;264035;1092;101156;-60
2021/08/10 13:37:02;;;;;;;5.73;2.98;;;;;;;29.76;46.64;99006.39;263655;1092;114914;-60
2021/08/10 13:42:06;;;;;;;4.08;2.43;;;;;;;29.97;46.17;98991.47;263910;1093;114829;-62
2021/08/10 13:47:13;;;;;;;;;;;;;;;30.21;46.11;98986.27;263918;1093;114758;-63
2021/08/10 13:52:18;;;;;;;8.07;4.50;;;;;;;30.36;45.06;98979.35;264105;1093;101251;-62
2021/08/10 13:57:24;;;;;;;7.07;3.90;;;;;;;30.48;44.07;98965.74;263971;1092;114908;-61
2021/08/10 14:02:27;;;;;;;9.37;8.50;;;;;;;30.59;43.62;98969.65;263632;1092;115121;-60
2021/08/10 14:07:32;;;;;;;9.87;8.10;;;;;;;30.66;43.34;98958.59;263866;1091;115319;-60
2021/08/10 14:12:36;;;;;;;4.30;2.55;;;;;;;30.86;43.18;98960.08;263869;1092;114891;-63
2021/08/10 14:17:39;;;;;;;3.43;2.70;;;;;;;31.22;42.82;98952.91;263907;1092;115288;-62
2021/08/10 14:22:43;;;;;;;3.80;2.53;;;;;;;31.60;42.66;98946.28;263804;1092;114588;-64
2021/08/10 14:27:47;;;;;;;4.13;2.18;;;;;;;31.92;42.55;98943.28;263925;1092;114855;-62
2021/08/10 14:32:50;;;;;;;4.20;2.33;;;;;;;32.09;41.79;98947.02;263956;1092;115125;-62
2021/08/10 14:38:00;;;;;;;3.80;2.20;;;;;;;32.10;41.00;98943.21;263794;1092;114855;-62
2021/08/10 14:43:04;;;;;;;5.87;2.13;;;;;;;31.99;40.98;98936.58;263930;1093;115482;-64
2021/08/10 14:48:07;;;;;;;;;;;;;;;31.82;40.44;98938.31;263920;1093;115407;-64
2021/08/10 14:53:11;;;;;;;8.27;3.23;;;;;;;31.44;40.47;98927.67;263915;1092;101405;-61
2021/08/10 14:58:14;;;;;;;;;;;;;;;30.92;40.73;98933.60;264102;1092;115127;-62
2021/08/10 15:03:18;;;;;;;87.53;76.97;;;;;;;30.43;40.54;98932.60;263640;1093;101003;-60
2021/08/10 15:08:22;;;;;;;;;;;;;;;30.00;40.85;98919.67;263789;1092;115458;-61
2021/08/10 15:13:25;;;;;;;7.23;4.00;;;;;;;29.60;41.45;98919.13;263816;1091;100986;-62
2021/08/10 15:18:29;;;;;;;6.15;2.93;;;;;;;29.26;41.88;98920.35;263010;1092;115003;-61
2021/08/10 15:23:33;;;;;;;;;;;;;;;28.96;42.01;98916.22;262300;1093;114661;-62
2021/08/10 15:28:36;;;;;;;5.13;3.07;;;;;;;28.67;42.31;98908.52;263775;1092;101290;-61
2021/08/10 15:33:40;;;;;;;4.28;2.58;;;;;;;28.42;42.41;98908.38;263222;1093;115700;-61
2021/08/10 15:38:43;;;;;;;;;;;;;;;28.22;42.57;98909.21;262697;1092;115321;-61
2021/08/10 15:43:47;;;;;;;55.23;42.03;;;;;;;28.04;43.14;98909.86;263314;1092;101907;-60
2021/08/10 15:48:51;;;;;;;10.20;8.03;;;;;;;27.91;43.39;98914.50;263570;1092;115455;-60
2021/08/10 15:53:55;;;;;;;8.15;6.13;;;;;;;27.80;43.56;98905.86;263610;1092;115019;-60
2021/08/10 15:58:58;;;;;;;7.48;4.13;;;;;;;27.68;43.36;98896.55;263410;1092;114810;-60
2021/08/10 16:04:02;;;;;;;4.77;2.60;;;;;;;27.57;43.80;98889.81;263793;1093;115127;-61
2021/08/10 16:09:07;;;;;;;;;;;;;;;27.50;44.14;98883.50;263380;1092;114983;-61
2021/08/10 16:14:11;;;;;;;4.55;2.90;;;;;;;27.42;44.04;98882.88;263203;1092;101938;-62
2021/08/10 16:19:15;;;;;;;30.40;24.17;;;;;;;27.33;44.16;98866.65;263063;1093;115002;-60
2021/08/10 16:24:24;;;;;;;10.20;6.70;;;;;;;27.27;44.30;98861.17;263170;1092;115447;-60
2021/08/10 16:29:27;;;;;;;10.23;6.90;;;;;;;27.19;44.79;98856.75;263658;1092;115513;-61
2021/08/10 16:34:31;;;;;;;6.23;4.30;;;;;;;27.10;44.60;98849.75;263691;1092;114963;-60
2021/08/10 16:39:35;;;;;;;5.18;3.48;;;;;;;27.01;45.01;98853.73;262799;1093;115380;-61
2021/08/10 16:44:41;;;;;;;5.03;2.85;;;;;;;26.92;44.99;98850.33;263522;1092;114973;-62
2021/08/10 16:49:45;;;;;;;3.93;3.00;;;;;;;26.87;44.70;98850.13;263341;1093;115639;-62
2021/08/10 16:54:48;;;;;;;;;;;;;;;26.80;44.88;98852.83;263454;1092;115256;-61
2021/08/10 16:59:52;;;;;;;7.30;2.73;;;;;;;26.76;45.40;98853.42;263204;1093;102617;-66
2021/08/10 17:04:56;;;;;;;5.45;3.00;;;;;;;26.72;45.11;98858.45;263850;1092;114862;-62
2021/08/10 17:09:59;;;;;;;206.18;166.18;;;;;;;26.67;45.50;98860.13;263687;1092;114895;-61
2021/08/10 17:15:08;;;;;;;28.43;23.13;;;;;;;26.64;45.79;98855.91;263399;1092;115970;-61
2021/08/10 17:20:12;;;;;;;28.80;19.90;;;;;;;26.57;45.62;98861.33;262898;1092;115523;-59
2021/08/10 17:25:20;;;;;;;12.53;6.37;;;;;;;26.49;46.22;98872.40;263706;1092;115200;-61
2021/08/10 17:30:27;;;;;;;14.53;6.47;;;;;;;26.45;46.06;98870.25;263470;1092;115240;-62
2021/08/10 17:35:31;;;;;;;24.65;8.45;;;;;;;26.34;46.51;98867.05;263671;1092;115201;-62
2021/08/10 17:40:35;;;;;;;12.90;4.35;;;;;;;26.23;47.17;98873.07;263230;1093;115000;-64
2021/08/10 17:45:38;;;;;;;15.60;5.30;;;;;;;26.11;47.64;98874.66;263444;1093;115348;-62
2021/08/10 17:50:42;;;;;;;13.45;4.40;;;;;;;26.01;47.50;98879.61;263614;1092;115441;-62
2021/08/10 17:55:49;;;;;;;12.78;4.73;;;;;;;25.96;47.74;98882.95;263674;1093;114934;-62
2021/08/10 18:00:53;;;;;;;45.60;33.20;;;;;;;25.92;47.87;98881.66;263583;1092;115025;-61
2021/08/10 18:05:57;;;;;;;83.73;62.00;;;;;;;25.90;48.20;98886.46;263686;1092;115722;-60
2021/08/10 18:11:00;;;;;;;;;;;;;;;25.88;47.94;98880.34;263136;1092;115619;-61
2021/08/10 18:16:04;;;;;;;10.13;6.07;;;;;;;25.80;48.41;98889.52;263407;1092;101486;-62
2021/08/10 18:21:08;;;;;;;12.43;6.60;;;;;;;25.72;48.63;98909.56;262923;1092;115119;-64
2021/08/10 18:26:12;;;;;;;19.03;6.03;;;;;;;25.67;48.97;98911.17;263516;1092;115179;-64
2021/08/10 18:31:16;;;;;;;12.30;5.60;;;;;;;25.64;48.77;98917.02;263427;1093;115559;-63
2021/08/10 18:36:20;;;;;;;7.78;5.23;;;;;;;25.60;48.67;98927.47;263181;1092;137073;-64
2021/08/10 18:41:24;;;;;;;11.65;7.80;;;;;;;25.58;49.18;98929.56;262727;1092;115582;-65
2021/08/10 18:46:28;;;;;;;8.90;4.53;;;;;;;25.55;49.10;98938.13;263474;1092;115782;-64
2021/08/10 18:51:33;;;;;;;9.60;5.95;;;;;;;25.51;49.36;98939.55;263613;1093;115090;-61
2021/08/10 18:56:37;;;;;;;132.40;117.07;;;;;;;25.52;49.65;98937.67;263537;1092;115220;-62
2021/08/10 19:01:40;;;;;;;17.73;11.28;;;;;;;25.51;49.51;98933.23;263461;1092;115908;-61
2021/08/10 19:06:44;;;;;;;11.00;6.48;;;;;;;25.46;49.54;98928.38;262899;1093;116485;-62
2021/08/10 19:11:48;;;;;;;10.48;5.90;;;;;;;25.41;49.47;98925.40;263597;1092;114877;-63
2021/08/10 19:16:51;;;;;;;14.78;5.90;;;;;;;25.34;49.83;98924.45;263689;1093;115478;-64
2021/08/10 19:21:55;;;;;;;11.43;5.78;;;;;;;25.27;50.28;98915.38;263487;1093;115316;-64
2021/08/10 19:26:59;;;;;;;12.15;5.73;;;;;;;25.19;50.06;98917.17;263384;1092;115305;-66
2021/08/10 19:32:02;;;;;;;9.80;4.80;;;;;;;25.13;50.35;98925.27;263702;1091;115695;-62
2021/08/10 19:37:06;;;;;;;12.13;6.25;;;;;;;25.07;50.70;98929.59;263164;1092;115797;-61
2021/08/10 19:42:10;;;;;;;9.95;4.98;;;;;;;24.99;50.67;98921.52;263456;1092;115256;-65
2021/08/10 19:47:14;;;;;;;10.85;4.80;;;;;;;24.91;50.83;98935.25;262930;1092;114841;-65
2021/08/10 19:52:17;;;;;;;10.38;5.70;;;;;;;24.82;50.98;98930.92;263680;1093;115084;-61
2021/08/10 19:57:21;;;;;;;11.53;5.43;;;;;;;24.70;51.18;98939.58;263184;1093;115426;-60
2021/08/10 20:02:25;;;;;;;;;;;;;;;24.61;51.31;98937.14;263252;1092;115025;-61
2021/08/10 20:07:29;;;;;;;24.13;14.07;;;;;;;24.50;51.67;98938.45;263739;1092;101005;-65
2021/08/10 20:12:32;;;;;;;14.75;6.98;;;;;;;24.40;51.71;98941.45;263392;1093;115411;-64
2021/08/10 20:17:36;;;;;;;12.70;5.40;;;;;;;24.28;51.77;98957.33;263642;1092;115329;-60
2021/08/10 20:22:40;;;;;;;16.05;7.90;;;;;;;24.16;52.13;98958.82;263607;1093;115263;-61
2021/08/10 20:27:43;;;;;;;85.63;70.55;;;;;;;24.04;52.27;98950.25;263708;1092;115909;-64
2021/08/10 20:32:48;;;;;;;14.07;6.23;;;;;;;23.87;52.17;98959.57;263131;1092;115606;-63
2021/08/10 20:37:52;;;;;;;5.30;4.38;;;;;;;23.67;52.55;98975.48;263197;1093;115081;-60
2021/08/10 20:42:56;;;;;;;7.17;5.10;;;;;;;23.49;52.95;98972.22;263148;1093;115219;-59
2021/08/10 20:48:00;;;;;;;10.08;5.33;;;;;;;23.31;53.29;98981.50;262579;1093;115186;-59
2021/08/10 20:53:04;;;;;;;7.80;4.80;;;;;;;23.15;53.65;98984.29;263162;1092;115024;-60
2021/08/10 20:58:07;;;;;;;9.60;4.95;;;;;;;22.99;53.92;98984.36;263354;1092;115078;-63
2021/08/10 21:03:11;;;;;;;8.78;4.60;;;;;;;22.84;54.36;98981.51;263238;1091;115666;-63
2021/08/10 21:08:15;;;;;;;12.20;4.83;;;;;;;22.71;54.54;98987.48;263317;1092;115310;-60
2021/08/10 21:13:18;;;;;;;8.43;4.83;;;;;;;22.59;54.99;98997.02;263436;1092;115111;-61
2021/08/10 21:18:22;;;;;;;10.85;5.18;;;;;;;22.49;55.50;99008.06;263352;1092;115055;-60
2021/08/10 21:23:26;;;;;;;10.43;4.70;;;;;;;22.40;55.33;99014.50;263344;1092;115228;-63
2021/08/10 21:28:29;;;;;;;12.35;5.08;;;;;;;22.35;55.73;99016.86;263581;1092;115227;-65
2021/08/10 21:33:33;;;;;;;10.28;5.48;;;;;;;22.34;56.24;99023.31;263506;1092;114753;-64
2021/08/10 21:38:37;;;;;;;10.88;4.70;;;;;;;22.34;56.28;99036.88;263141;1093;115496;-65
2021/08/10 21:43:40;;;;;;;7.85;4.53;;;;;;;22.27;56.32;99036.70;263426;1093;115058;-62
2021/08/10 21:48:44;;;;;;;9.73;4.33;;;;;;;22.16;56.40;99037.90;263460;1092;115061;-61
2021/08/10 21:53:48;;;;;;;7.00;4.50;;;;;;;22.06;56.43;99044.48;263496;1093;114924;-64
2021/08/10 21:58:52;;;;;;;10.58;4.40;;;;;;;21.91;56.90;99050.56;263581;1092;114996;-63
2021/08/10 22:03:56;;;;;;;7.95;4.63;;;;;;;21.81;57.27;99068.00;262244;1092;115649;-59
2021/08/10 22:09:02;;;;;;;8.60;4.50;;;;;;;21.72;57.47;99059.83;261545;1091;114947;-62
2021/08/10 22:14:15;;;;;;;7.78;4.33;;;;;;;21.68;57.80;99057.63;261873;1092;114901;-62
2021/08/10 22:19:21;;;;;;;6.77;4.10;;;;;;;21.64;57.89;99050.86;262393;1092;114909;-63
2021/08/10 22:24:27;;;;;;;12.70;4.63;;;;;;;21.62;58.42;99042.88;263356;1093;114895;-61
2021/08/10 22:29:32;;;;;;;;;;;;;;;21.61;58.47;99043.06;262939;1092;115153;-60
2021/08/10 22:34:37;;;;;;;10.87;5.10;;;;;;;21.54;58.73;99042.03;262836;1092;102992;-63
2021/08/10 22:39:42;;;;;;;14.63;5.50;;;;;;;21.47;59.01;99044.55;263514;1092;115099;-64
2021/08/10 22:44:46;;;;;;;;;;;;;;;21.43;59.10;99049.45;263166;1093;115062;-68
2021/08/10 22:49:52;;;;;;;12.38;5.18;;;;;;;21.38;59.14;99040.95;262799;1092;102876;-68
2021/08/10 22:54:56;;;;;;;9.70;4.98;;;;;;;21.34;59.29;99045.00;261398;1092;115364;-65
2021/08/10 23:00:11;;;;;;;8.40;4.40;;;;;;;21.27;59.40;99049.34;262674;1091;115067;-66
2021/08/10 23:05:16;;;;;;;12.07;4.60;;;;;;;21.23;59.65;99056.95;263138;1093;115021;-64
2021/08/10 23:10:20;;;;;;;8.33;4.60;;;;;;;21.25;59.78;99040.53;263360;1091;114963;-59
2021/08/10 23:15:26;;;;;;;9.90;4.50;;;;;;;21.24;59.96;99031.56;261351;1091;115320;-66
2021/08/10 23:20:41;;;;;;;6.70;4.80;;;;;;;21.21;60.05;99033.75;261391;1092;114488;-64
2021/08/10 23:25:46;;;;;;;8.97;4.93;;;;;;;21.14;60.20;99028.14;261395;1092;114583;-64